»·PEaware :: WAT169 KLAS-KDEN

WAT169 :: KLAS-KDEN

FLIGHT INFORMATION

Flight Status: Arrived
Operator:
Walker Air Transport
More flights by this operator :: More flights under this callsign
Pilot: Marty P. (27464)
Aircraft: BOEING 737-800
(B738)
More flights by this aircraft type
Origin: KLAS McCarran Intl
United States
Destination: KDEN Denver Intl
United States
More flights between these airports :: More routes between these airports
Route: +STAAV8 STAAV TRALR NICLE BUMMP SSKII1
File this flight plan on PilotEdge
Remarks:
Altitude:
(Current/Filed)
39,000ft
Speed:
(Current/Filed)
480kts
Departed: 28-Oct-20 08:11 PM
Arrived: 28-Oct-20 09:36 PM
Distance/Time
Traveled:
544nm/1:25
Distance/Time
To Go:
Arrived

Flight Plot

Page will automatically refresh every two minutes.

Flight plan parsing failed; only flown route is shown


Map Options




Map Legend


Flown Route
Filed Route
Departure Airport
Arrival Airport
Navaid (VOR, NDB)
Fix

Horizontal Profiles

Position Reports

Time Latitude Longitude Heading Altitude Ground
Speed
28-Oct-20 19:54 36.080317 -115.147297 66 2099ft 0kts
28-Oct-20 19:55 36.080317 -115.147297 66 2099ft 0kts
28-Oct-20 19:56 36.080317 -115.147297 66 2099ft 0kts
28-Oct-20 19:57 36.080317 -115.147297 66 2099ft 0kts
28-Oct-20 19:58 36.080317 -115.147297 66 2099ft 0kts
28-Oct-20 19:59 36.080214 -115.147583 66 2100ft 2kts
28-Oct-20 20:01 36.080350 -115.148120 160 2102ft 1kts
28-Oct-20 20:02 36.080388 -115.148139 155 2102ft 0kts
28-Oct-20 20:03 36.080382 -115.148136 155 2102ft 0kts
28-Oct-20 20:04 36.079819 -115.147809 154 2102ft 3kts
28-Oct-20 20:05 36.078421 -115.145737 94 2098ft 20kts
28-Oct-20 20:06 36.078269 -115.137235 89 2073ft 26kts
28-Oct-20 20:07 36.078277 -115.127498 89 2048ft 28kts
28-Oct-20 20:08 36.077574 -115.121643 129 2039ft 1kts
28-Oct-20 20:09 36.077469 -115.121500 138 2039ft 0kts
28-Oct-20 20:10 36.076445 -115.122199 269 2041ft 17kts
28-Oct-20 20:11 36.076511 -115.170366 272 3104ft 191kts
28-Oct-20 20:12 36.076925 -115.246311 282 5456ft 249kts
28-Oct-20 20:13 36.121900 -115.296550 353 9591ft 236kts
28-Oct-20 20:14 36.172685 -115.258732 56 13511ft 243kts
28-Oct-20 20:14 36.194355 -115.180856 73 14285ft 339kts
28-Oct-20 20:16 36.198063 -115.031508 79 17043ft 386kts
28-Oct-20 20:16 36.199190 -114.920023 78 19280ft 395kts
28-Oct-20 20:18 36.200673 -114.759000 79 22075ft 408kts
28-Oct-20 20:18 36.199149 -114.641175 79 23844ft 416kts
28-Oct-20 20:20 36.197086 -114.472770 79 26175ft 421kts
28-Oct-20 20:20 36.195605 -114.351427 79 27639ft 425kts
28-Oct-20 20:21 36.199436 -114.207554 72 29779ft 405kts
28-Oct-20 20:22 36.214715 -114.070848 71 31433ft 402kts
28-Oct-20 20:23 36.231069 -113.933306 71 32719ft 407kts
28-Oct-20 20:24 36.247544 -113.793864 72 33884ft 412kts
28-Oct-20 20:25 36.264108 -113.652629 73 34924ft 417kts
28-Oct-20 20:26 36.280749 -113.509257 74 35818ft 424kts
28-Oct-20 20:27 36.297435 -113.363887 74 36590ft 431kts
28-Oct-20 20:28 36.319643 -113.217907 64 37290ft 428kts
28-Oct-20 20:29 36.373296 -113.086878 56 37880ft 429kts
28-Oct-20 20:30 36.431318 -112.956389 57 38432ft 435kts
28-Oct-20 20:31 36.490092 -112.823523 57 38925ft 440kts
28-Oct-20 20:32 36.549359 -112.689034 57 39135ft 451kts
28-Oct-20 20:33 36.610361 -112.550079 57 39158ft 463kts
28-Oct-20 20:34 36.672417 -112.408035 58 39174ft 471kts
28-Oct-20 20:35 36.735150 -112.263805 58 39175ft 476kts
28-Oct-20 20:36 36.798264 -112.117996 58 39173ft 479kts
28-Oct-20 20:37 36.861564 -111.971181 59 39155ft 481kts
28-Oct-20 20:38 36.924910 -111.823597 59 39139ft 485kts
28-Oct-20 20:39 36.988628 -111.674415 59 39138ft 488kts
28-Oct-20 20:40 37.052397 -111.524435 59 39136ft 488kts
28-Oct-20 20:41 37.116012 -111.374184 59 39136ft 489kts
28-Oct-20 20:42 37.179711 -111.222945 60 39140ft 490kts
28-Oct-20 20:43 37.243032 -111.071949 60 39145ft 491kts
28-Oct-20 20:44 37.306585 -110.919682 60 39168ft 492kts
28-Oct-20 20:45 37.370043 -110.766904 60 39174ft 494kts
28-Oct-20 20:46 37.433299 -110.613865 60 39175ft 495kts
28-Oct-20 20:47 37.496730 -110.459657 60 39173ft 496kts
28-Oct-20 20:48 37.559598 -110.306032 61 39172ft 496kts
28-Oct-20 20:49 37.622601 -110.151412 61 39173ft 496kts
28-Oct-20 20:50 37.685435 -109.996441 61 39179ft 496kts
28-Oct-20 20:51 37.748165 -109.840954 61 39182ft 497kts
28-Oct-20 20:52 37.810771 -109.684961 61 39180ft 498kts
28-Oct-20 20:53 37.873308 -109.528399 61 39176ft 500kts
28-Oct-20 20:54 37.935897 -109.370877 62 39173ft 502kts
28-Oct-20 20:55 37.998712 -109.212069 62 39175ft 505kts
28-Oct-20 20:56 38.061352 -109.052636 62 39155ft 505kts
28-Oct-20 20:57 38.123317 -108.892496 64 39136ft 506kts
28-Oct-20 20:58 38.183486 -108.730258 63 39136ft 508kts
28-Oct-20 20:59 38.246020 -108.568470 63 39137ft 511kts
28-Oct-20 21:00 38.309155 -108.406132 63 39188ft 514kts
28-Oct-20 21:01 38.372504 -108.242932 63 39244ft 516kts
28-Oct-20 21:02 38.436021 -108.078415 63 39269ft 518kts
28-Oct-20 21:03 38.498783 -107.912539 64 39266ft 521kts
28-Oct-20 21:04 38.561062 -107.746315 64 39265ft 522kts
28-Oct-20 21:05 38.623882 -107.578949 64 39247ft 524kts
28-Oct-20 21:06 38.686041 -107.413192 64 37276ft 501kts
28-Oct-20 21:07 38.745232 -107.256450 64 35305ft 496kts
28-Oct-20 21:08 38.805638 -107.096189 64 33307ft 505kts
28-Oct-20 21:09 38.867180 -106.932131 65 31297ft 515kts
28-Oct-20 21:10 38.929607 -106.764799 65 29489ft 524kts
28-Oct-20 21:11 38.992353 -106.595667 65 27984ft 527kts
28-Oct-20 21:12 39.054226 -106.424893 66 26484ft 530kts
28-Oct-20 21:13 39.116779 -106.252931 66 24965ft 524kts
28-Oct-20 21:14 39.177570 -106.085070 66 23465ft 512kts
28-Oct-20 21:15 39.237064 -105.919698 66 21961ft 506kts
28-Oct-20 21:16 39.295048 -105.758278 66 20531ft 487kts
28-Oct-20 21:17 39.351813 -105.600414 65 19227ft 479kts
28-Oct-20 21:18 39.405522 -105.452686 65 17424ft 431kts
28-Oct-20 21:19 39.467111 -105.328758 54 16055ft 390kts
28-Oct-20 21:20 39.526148 -105.220101 54 14955ft 353kts
28-Oct-20 21:21 39.579269 -105.121607 54 14563ft 323kts
28-Oct-20 21:22 39.629677 -105.027969 54 13902ft 306kts
28-Oct-20 21:23 39.677011 -104.939824 54 13070ft 292kts
28-Oct-20 21:24 39.726091 -104.858190 33 12876ft 290kts
28-Oct-20 21:25 39.802572 -104.840099 359 11932ft 271kts
28-Oct-20 21:26 39.879049 -104.839552 0 11021ft 278kts
28-Oct-20 21:27 39.950879 -104.834393 359 10455ft 251kts
28-Oct-20 21:28 40.020924 -104.835155 358 8522ft 251kts
28-Oct-20 21:29 40.057934 -104.786254 87 7945ft 201kts
28-Oct-20 21:30 40.048340 -104.716432 118 7934ft 199kts
28-Oct-20 21:31 40.004133 -104.678530 175 7566ft 196kts
28-Oct-20 21:32 39.957939 -104.686214 180 6666ft 154kts
28-Oct-20 21:33 39.915735 -104.686602 179 5848ft 151kts
28-Oct-20 21:34 39.878219 -104.687034 180 5445ft 99kts
28-Oct-20 21:35 39.864377 -104.686727 114 5444ft 17kts
28-Oct-20 21:36 39.864171 -104.679426 92 5444ft 24kts
28-Oct-20 21:37 39.863573 -104.677846 179 5444ft 0kts
28-Oct-20 21:38 39.863573 -104.677846 179 5444ft 0kts
28-Oct-20 21:39 39.863573 -104.677846 179 5444ft 0kts
28-Oct-20 21:40 39.863573 -104.677846 179 5444ft 0kts
28-Oct-20 21:41 39.863573 -104.677846 179 5444ft 0kts

Navigation Log

Ident Type
Flight plan parsing failed, navigation log unavailable